Time;durP1;ratioP1;P1;durP2;ratioP2;P2;SDS_P1;SDS_P2;PMS_P1;PMS_P2;Temp;Humidity;BMP_temperature;BMP_pressure;BME280_temperature;BME280_humidity;BME280_pressure;Samples;Min_cycle;Max_cycle;Signal;HPM_P1;HPM_P2
2023/04/29 00:00:17;;;;;;;35.10;20.58;;;9.60;99.90;;;;;;5008124;28;20129;-61
2023/04/29 00:02:42;;;;;;;36.90;21.23;;;9.60;99.90;;;;;;5025283;28;20029;-62
2023/04/29 00:05:08;;;;;;;38.50;21.00;;;9.60;99.90;;;;;;5022998;28;20137;-62
2023/04/29 00:07:35;;;;;;;34.58;20.15;;;9.60;99.90;;;;;;5005367;28;20048;-62
2023/04/29 00:10:01;;;;;;;41.42;22.75;;;9.60;99.90;;;;;;5029008;28;20068;-62
2023/04/29 00:12:31;;;;;;;33.55;21.08;;;9.60;99.90;;;;;;5028739;28;20531;-62
2023/04/29 00:14:57;;;;;;;37.67;20.52;;;9.60;99.90;;;;;;5021996;28;20377;-62
2023/04/29 00:17:23;;;;;;;30.15;20.40;;;9.60;99.90;;;;;;5006475;28;20116;-62
2023/04/29 00:19:49;;;;;;;32.72;20.17;;;9.60;99.90;;;;;;5014037;28;20136;-62
2023/04/29 00:22:15;;;;;;;33.05;19.73;;;9.60;99.90;;;;;;4990394;28;20083;-62
2023/04/29 00:24:40;;;;;;;30.48;20.63;;;9.60;99.90;;;;;;5014621;28;20041;-62
2023/04/29 00:27:10;;;;;;;36.83;21.85;;;9.60;99.90;;;;;;5006500;28;20038;-61
2023/04/29 00:29:36;;;;;;;27.15;18.92;;;9.50;99.90;;;;;;5030913;28;20041;-62
2023/04/29 00:32:05;;;;;;;32.65;20.83;;;9.50;99.90;;;;;;5028601;28;20041;-62
2023/04/29 00:34:30;;;;;;;32.60;21.35;;;9.50;99.90;;;;;;5022818;28;20431;-62
2023/04/29 00:36:56;;;;;;;31.60;19.98;;;9.50;99.90;;;;;;5011602;28;20044;-62
2023/04/29 00:39:22;;;;;;;32.45;21.17;;;9.50;99.90;;;;;;5013518;28;20030;-61
2023/04/29 00:41:51;;;;;;;29.77;20.00;;;9.50;99.90;;;;;;5012823;28;20029;-62
2023/04/29 00:44:17;;;;;;;35.72;20.90;;;9.50;99.90;;;;;;5007662;28;20057;-62
2023/04/29 00:46:43;;;;;;;30.75;20.55;;;9.50;99.90;;;;;;5014799;28;20056;-61
2023/04/29 00:49:11;;;;;;;31.42;18.70;;;9.50;99.90;;;;;;5003076;28;20048;-61
2023/04/29 00:51:37;;;;;;;32.97;21.05;;;9.50;99.90;;;;;;5027858;28;20037;-62
2023/04/29 00:54:04;;;;;;;27.33;19.75;;;9.50;99.90;;;;;;5030289;28;20060;-62
2023/04/29 00:56:32;;;;;;;30.23;19.70;;;9.50;99.90;;;;;;4995483;28;20037;-62
2023/04/29 00:59:01;;;;;;;31.67;20.27;;;9.50;99.90;;;;;;5032005;28;20057;-62
2023/04/29 01:01:28;;;;;;;32.20;20.73;;;9.50;99.90;;;;;;5021530;28;20044;-61
2023/04/29 01:03:54;;;;;;;34.58;20.05;;;9.50;99.90;;;;;;4996416;28;20051;-61
2023/04/29 01:06:46;;;;;;;35.90;21.38;;;9.50;99.90;;;;;;5022437;28;20041;-62
2023/04/29 01:09:33;;;;;;;29.17;20.35;;;9.50;99.90;;;;;;5021332;28;20407;-62
2023/04/29 01:12:20;;;;;;;37.13;20.17;;;9.50;99.90;;;;;;5018479;28;20037;-62
2023/04/29 01:15:09;;;;;;;36.60;21.05;;;9.50;99.90;;;;;;5005282;28;20045;-62
2023/04/29 01:17:40;;;;;;;32.08;21.70;;;9.50;99.90;;;;;;5025210;28;20045;-61
2023/04/29 01:20:08;;;;;;;39.42;21.65;;;9.50;99.90;;;;;;5026629;28;20565;-61
2023/04/29 01:22:34;;;;;;;39.17;21.60;;;9.50;99.90;;;;;;4993078;28;20140;-62
2023/04/29 01:25:00;;;;;;;38.97;20.58;;;9.50;99.90;;;;;;5025531;28;20125;-62
2023/04/29 01:27:28;;;;;;;44.72;22.25;;;9.50;99.90;;;;;;5042675;28;20050;-62
2023/04/29 01:29:57;;;;;;;37.53;20.10;;;9.50;99.90;;;;;;5026099;28;20044;-62
2023/04/29 01:32:33;;;;;;;41.90;22.17;;;9.50;99.90;;;;;;5010271;28;20045;-61
2023/04/29 01:35:04;;;;;;;37.78;22.80;;;9.50;99.90;;;;;;5027065;28;20542;-62
2023/04/29 01:38:03;;;;;;;37.85;20.65;;;9.50;99.90;;;;;;5017615;28;20196;-62
2023/04/29 01:40:48;;;;;;;39.35;20.95;;;9.40;99.90;;;;;;5030331;28;20069;-61
2023/04/29 01:43:16;;;;;;;38.85;21.08;;;9.40;99.90;;;;;;5019772;28;20116;-62
2023/04/29 01:45:43;;;;;;;40.15;22.08;;;9.30;99.90;;;;;;5021653;28;20158;-62
2023/04/29 01:48:09;;;;;;;37.55;21.20;;;9.40;99.90;;;;;;5027221;28;20484;-61
2023/04/29 01:50:35;;;;;;;36.55;21.10;;;9.30;99.90;;;;;;5009202;28;20046;-61
2023/04/29 01:53:01;;;;;;;35.47;21.73;;;9.30;99.90;;;;;;5020956;28;20052;-61
2023/04/29 01:55:32;;;;;;;43.90;24.10;;;9.30;99.90;;;;;;5014827;28;20037;-61
2023/04/29 01:57:58;;;;;;;38.42;23.55;;;9.20;99.90;;;;;;4994005;28;20087;-61
2023/04/29 02:00:24;;;;;;;43.83;23.20;;;9.20;99.90;;;;;;5021699;28;20136;-62
2023/04/29 02:02:50;;;;;;;42.95;24.73;;;9.20;99.90;;;;;;5022049;28;20048;-62
2023/04/29 02:05:18;;;;;;;40.95;24.33;;;9.20;99.90;;;;;;5021418;28;20444;-62
2023/04/29 02:07:44;;;;;;;42.67;25.50;;;9.20;99.90;;;;;;5015046;28;20120;-61
2023/04/29 02:10:10;;;;;;;40.70;24.75;;;9.20;99.90;;;;;;5026007;28;20049;-62
2023/04/29 02:12:36;;;;;;;45.55;25.45;;;9.20;99.90;;;;;;5003865;28;20037;-62
2023/04/29 02:15:02;;;;;;;45.28;24.58;;;9.20;99.90;;;;;;5026741;28;20155;-62
2023/04/29 02:17:28;;;;;;;44.38;24.77;;;9.10;99.90;;;;;;5001593;28;20033;-62
2023/04/29 02:19:54;;;;;;;44.78;26.67;;;9.10;99.90;;;;;;5022342;28;20806;-62
2023/04/29 02:22:20;;;;;;;44.15;25.92;;;9.10;99.90;;;;;;5005274;28;20033;-62
2023/04/29 02:24:46;;;;;;;48.13;25.10;;;9.10;99.90;;;;;;5014053;28;20057;-62
2023/04/29 02:27:12;;;;;;;51.92;25.95;;;9.10;99.90;;;;;;5012757;28;20642;-61
2023/04/29 02:29:38;;;;;;;49.85;25.75;;;9.10;99.90;;;;;;4993226;28;20053;-62
2023/04/29 02:32:05;;;;;;;43.70;24.23;;;9.10;99.90;;;;;;4996629;28;20040;-60
2023/04/29 02:34:30;;;;;;;41.58;23.55;;;9.10;99.90;;;;;;4991140;28;20484;-61
2023/04/29 02:36:56;;;;;;;43.60;23.67;;;9.10;99.90;;;;;;4990631;28;20045;-62
2023/04/29 02:39:22;;;;;;;42.05;22.88;;;9.10;99.90;;;;;;5006280;28;20052;-62
2023/04/29 02:41:48;;;;;;;43.25;24.02;;;9.10;99.90;;;;;;5009175;28;20065;-62
2023/04/29 02:44:13;;;;;;;44.58;23.27;;;9.10;99.90;;;;;;5006193;28;20119;-62
2023/04/29 02:46:44;;;;;;;45.72;23.30;;;8.70;99.90;;;;;;5003772;28;20041;-61
2023/04/29 02:49:10;;;;;;;41.10;22.48;;;9.10;99.90;;;;;;5017573;28;20116;-61
2023/04/29 02:51:36;;;;;;;37.17;21.85;;;9.10;99.90;;;;;;5006571;28;20565;-62
2023/04/29 02:54:02;;;;;;;44.20;22.90;;;9.10;99.90;;;;;;5013826;28;20081;-62
2023/04/29 02:56:28;;;;;;;44.55;23.08;;;9.10;99.90;;;;;;4994003;28;20075;-61
2023/04/29 02:58:54;;;;;;;40.20;24.63;;;9.10;99.90;;;;;;4984902;28;20034;-62
2023/04/29 03:01:20;;;;;;;42.17;22.42;;;9.10;99.90;;;;;;5027305;28;20045;-62
2023/04/29 03:03:46;;;;;;;40.58;22.25;;;9.10;99.90;;;;;;5025107;28;20034;-62
2023/04/29 03:06:12;;;;;;;39.78;19.98;;;9.10;99.90;;;;;;5023265;28;20044;-61
2023/04/29 03:08:37;;;;;;;35.53;21.15;;;9.10;99.90;;;;;;5028315;28;20037;-62
2023/04/29 03:11:03;;;;;;;36.17;19.98;;;9.10;99.90;;;;;;5020376;28;20515;-62
2023/04/29 03:13:29;;;;;;;35.95;20.33;;;9.10;99.90;;;;;;5027092;28;20072;-62
2023/04/29 03:15:57;;;;;;;34.10;20.23;;;9.10;99.90;;;;;;5007154;28;20131;-62
2023/04/29 03:18:23;;;;;;;36.28;19.48;;;9.10;99.90;;;;;;5027897;28;20673;-61
2023/04/29 03:20:48;;;;;;;31.33;17.98;;;9.10;99.90;;;;;;5017121;28;20052;-62
2023/04/29 03:23:14;;;;;;;30.90;18.40;;;9.10;99.90;;;;;;5025341;28;20501;-61
2023/04/29 03:25:40;;;;;;;25.50;15.98;;;9.10;99.90;;;;;;5021660;28;20072;-61
2023/04/29 03:28:06;;;;;;;29.15;16.75;;;9.10;99.90;;;;;;5003058;28;20033;-62
2023/04/29 03:30:32;;;;;;;28.05;17.05;;;9.10;99.90;;;;;;5024009;28;20088;-62
2023/04/29 03:32:58;;;;;;;30.95;17.50;;;9.10;99.90;;;;;;5015006;28;20087;-62
2023/04/29 03:35:24;;;;;;;26.98;15.70;;;9.10;99.90;;;;;;5029386;28;20056;-61
2023/04/29 03:37:50;;;;;;;25.15;16.75;;;9.10;99.90;;;;;;4993113;28;20690;-62
2023/04/29 03:40:15;;;;;;;28.30;16.10;;;9.10;99.90;;;;;;5027644;28;20042;-61
2023/04/29 03:42:41;;;;;;;32.47;16.88;;;9.10;99.90;;;;;;5028836;28;20037;-61
2023/04/29 03:45:07;;;;;;;27.80;16.42;;;9.10;99.90;;;;;;5019846;28;20040;-61
2023/04/29 03:47:36;;;;;;;33.17;17.85;;;9.00;99.90;;;;;;5020607;28;20125;-61
2023/04/29 03:50:02;;;;;;;24.05;15.77;;;9.10;99.90;;;;;;5009716;28;20053;-61
2023/04/29 03:52:28;;;;;;;27.98;16.80;;;9.10;99.90;;;;;;4995341;28;20041;-61
2023/04/29 03:54:53;;;;;;;33.15;17.65;;;9.10;99.90;;;;;;5012865;28;20120;-61
2023/04/29 03:57:22;;;;;;;28.77;15.48;;;9.10;99.90;;;;;;4990157;28;20104;-61
2023/04/29 03:59:49;;;;;;;29.92;16.83;;;9.10;99.90;;;;;;5024410;28;20558;-61
2023/04/29 04:02:15;;;;;;;32.92;18.38;;;9.10;99.90;;;;;;5027746;28;20056;-62
2023/04/29 04:04:41;;;;;;;32.10;18.48;;;9.10;99.90;;;;;;5025719;28;20132;-61
2023/04/29 04:07:10;;;;;;;30.50;16.77;;;9.10;99.90;;;;;;4995031;28;20120;-61
2023/04/29 04:09:39;;;;;;;33.90;18.25;;;9.10;99.90;;;;;;5000612;28;20061;-62
2023/04/29 04:12:05;;;;;;;29.30;18.20;;;9.10;99.90;;;;;;5014830;28;20051;-61
2023/04/29 04:14:31;;;;;;;31.80;19.35;;;9.10;99.90;;;;;;5013127;28;20145;-61
2023/04/29 04:16:57;;;;;;;34.55;17.25;;;9.10;99.90;;;;;;5010416;28;20128;-61
2023/04/29 04:19:22;;;;;;;30.80;18.08;;;9.10;99.90;;;;;;4971698;28;20049;-61
2023/04/29 04:21:48;;;;;;;33.78;17.02;;;9.10;99.90;;;;;;5020903;28;20040;-61
2023/04/29 04:24:14;;;;;;;31.48;17.65;;;9.10;99.90;;;;;;5025313;28;20099;-61
2023/04/29 04:26:41;;;;;;;29.35;16.50;;;9.10;99.90;;;;;;5013725;28;20524;-61
2023/04/29 04:29:09;;;;;;;29.48;15.57;;;9.10;99.90;;;;;;5027747;28;20037;-61
2023/04/29 04:31:35;;;;;;;25.38;15.75;;;9.10;99.90;;;;;;5026599;28;20045;-61
2023/04/29 04:34:01;;;;;;;23.73;12.77;;;9.10;99.90;;;;;;5019570;28;20100;-61
2023/04/29 04:36:27;;;;;;;25.85;13.23;;;9.10;99.90;;;;;;5010822;28;20465;-63
2023/04/29 04:38:53;;;;;;;21.50;12.13;;;9.10;99.90;;;;;;5039282;28;20089;-61
2023/04/29 04:41:21;;;;;;;22.02;13.48;;;9.10;99.90;;;;;;5001151;28;20615;-61
2023/04/29 04:43:47;;;;;;;23.58;12.75;;;9.00;99.90;;;;;;5027578;28;20037;-61
2023/04/29 04:46:15;;;;;;;24.40;12.50;;;9.10;99.90;;;;;;5015607;28;20504;-62
2023/04/29 04:48:41;;;;;;;26.85;11.57;;;9.10;99.90;;;;;;5028081;28;20090;-62
2023/04/29 04:51:12;;;;;;;22.80;11.07;;;9.10;99.90;;;;;;5024853;28;20041;-61
2023/04/29 04:53:39;;;;;;;19.60;10.82;;;9.10;99.90;;;;;;5023411;28;20099;-61
2023/04/29 04:56:06;;;;;;;18.85;10.70;;;9.10;99.90;;;;;;5011686;28;20041;-61
2023/04/29 04:58:32;;;;;;;19.45;10.93;;;9.10;99.90;;;;;;5027754;28;20049;-61
2023/04/29 05:01:01;;;;;;;18.80;10.20;;;9.10;99.90;;;;;;5027559;28;20072;-61
2023/04/29 05:03:27;;;;;;;19.55;10.35;;;9.10;99.90;;;;;;5014612;28;20117;-61
2023/04/29 05:05:54;;;;;;;19.35;10.40;;;9.00;99.90;;;;;;5013088;28;20116;-61
2023/04/29 05:08:20;;;;;;;18.25;10.52;;;9.10;99.90;;;;;;5027289;28;20041;-61
2023/04/29 05:10:46;;;;;;;17.63;9.70;;;9.00;99.90;;;;;;5024638;28;20038;-61
2023/04/29 05:13:11;;;;;;;19.08;10.15;;;9.00;99.90;;;;;;5015695;28;20151;-61
2023/04/29 05:15:37;;;;;;;17.88;9.90;;;9.00;99.90;;;;;;5032698;28;20085;-61
2023/04/29 05:18:03;;;;;;;19.17;9.98;;;8.90;99.90;;;;;;5023124;28;20041;-61
2023/04/29 05:20:28;;;;;;;18.67;10.27;;;8.90;99.90;;;;;;5014637;28;20528;-61
2023/04/29 05:22:54;;;;;;;21.33;9.82;;;8.90;99.90;;;;;;5028925;28;20065;-61
2023/04/29 05:25:20;;;;;;;24.17;10.60;;;8.90;99.90;;;;;;5025804;28;20060;-61
2023/04/29 05:27:45;;;;;;;19.15;9.70;;;8.90;99.90;;;;;;5008345;28;20050;-61
2023/04/29 05:30:11;;;;;;;18.38;9.45;;;8.90;99.90;;;;;;5025268;28;20052;-61
2023/04/29 05:32:44;;;;;;;20.90;9.32;;;8.90;99.90;;;;;;5028228;28;20060;-61
2023/04/29 05:35:16;;;;;;;16.60;8.48;;;8.90;99.90;;;;;;5020833;28;20049;-61
2023/04/29 05:37:48;;;;;;;19.50;9.20;;;9.00;99.90;;;;;;5005813;28;20060;-62
2023/04/29 05:40:23;;;;;;;16.48;9.68;;;9.00;99.90;;;;;;5022132;28;20045;-61
2023/04/29 05:42:52;;;;;;;16.38;8.48;;;9.10;99.90;;;;;;5027645;28;20051;-61
2023/04/29 05:45:21;;;;;;;21.33;8.35;;;9.10;99.90;;;;;;5022578;28;20053;-62
2023/04/29 05:47:47;;;;;;;15.88;9.25;;;9.20;99.90;;;;;;5007023;28;20053;-61
2023/04/29 05:50:15;;;;;;;17.85;8.88;;;9.20;99.90;;;;;;5022945;28;20057;-61
2023/04/29 05:52:50;;;;;;;17.08;8.60;;;9.20;99.90;;;;;;5005025;28;20056;-61
2023/04/29 05:55:16;;;;;;;21.45;8.95;;;9.20;99.90;;;;;;5019618;28;20053;-61
2023/04/29 05:57:45;;;;;;;21.20;9.52;;;9.20;99.90;;;;;;5021821;28;20491;-61
2023/04/29 06:00:11;;;;;;;17.48;8.13;;;9.30;99.90;;;;;;5040498;28;20045;-61
2023/04/29 06:02:41;;;;;;;16.50;8.55;;;9.40;99.90;;;;;;5005491;28;20038;-61
2023/04/29 06:05:07;;;;;;;16.42;8.20;;;9.50;99.90;;;;;;5024305;28;20252;-61
2023/04/29 06:07:33;;;;;;;18.88;8.55;;;9.50;99.90;;;;;;5029864;28;20079;-61
2023/04/29 06:09:59;;;;;;;17.63;7.60;;;9.50;99.90;;;;;;5013547;28;20462;-61
2023/04/29 06:12:28;;;;;;;15.90;8.60;;;9.60;99.90;;;;;;5039891;28;20073;-61
2023/04/29 06:14:53;;;;;;;17.73;8.30;;;9.60;99.90;;;;;;5004668;28;20045;-61
2023/04/29 06:17:19;;;;;;;14.40;8.68;;;9.70;99.90;;;;;;4993331;28;20116;-61
2023/04/29 06:19:45;;;;;;;22.48;8.45;;;9.80;99.90;;;;;;4999011;28;20056;-61
2023/04/29 06:22:11;;;;;;;17.42;8.43;;;9.80;99.90;;;;;;5003858;28;20088;-61
2023/04/29 06:24:36;;;;;;;17.38;8.25;;;9.90;99.90;;;;;;5017469;28;20073;-61
2023/04/29 06:27:03;;;;;;;18.83;8.43;;;10.00;99.90;;;;;;5009244;28;20040;-61
2023/04/29 06:29:29;;;;;;;19.17;7.68;;;10.00;99.90;;;;;;5023539;28;20037;-62
2023/04/29 06:31:55;;;;;;;16.05;8.70;;;10.10;99.90;;;;;;5022223;28;20037;-61
2023/04/29 06:34:21;;;;;;;21.33;8.32;;;10.10;99.90;;;;;;5021526;28;20041;-61
2023/04/29 06:36:46;;;;;;;12.95;7.15;;;10.20;99.90;;;;;;5000523;28;20899;-61
2023/04/29 06:39:18;;;;;;;14.98;7.90;;;10.20;99.90;;;;;;5015010;28;20077;-62
2023/04/29 06:41:46;;;;;;;15.90;7.22;;;10.30;99.90;;;;;;5020091;28;20147;-61
2023/04/29 06:44:12;;;;;;;16.70;7.63;;;10.40;99.90;;;;;;5002517;28;20098;-61
2023/04/29 06:46:38;;;;;;;16.25;7.90;;;10.40;99.90;;;;;;5007044;28;20183;-62
2023/04/29 06:49:05;;;;;;;14.77;7.10;;;10.60;99.90;;;;;;5004694;28;20041;-62
2023/04/29 06:51:31;;;;;;;11.43;6.60;;;10.60;99.90;;;;;;5021166;28;20049;-61
2023/04/29 06:54:00;;;;;;;17.92;7.72;;;10.70;99.90;;;;;;5018963;28;20052;-62
2023/04/29 06:56:25;;;;;;;11.43;6.78;;;10.80;99.90;;;;;;5007145;28;20061;-62
2023/04/29 06:58:51;;;;;;;14.40;6.70;;;10.80;99.90;;;;;;5020099;28;20400;-62
2023/04/29 07:01:17;;;;;;;17.08;7.70;;;10.80;99.90;;;;;;5020561;28;20377;-62
2023/04/29 07:03:43;;;;;;;15.93;6.70;;;10.80;99.90;;;;;;5002194;28;20029;-61
2023/04/29 07:06:08;;;;;;;13.90;7.07;;;10.90;99.90;;;;;;5006709;28;20124;-62
2023/04/29 07:08:34;;;;;;;17.00;6.72;;;11.00;99.90;;;;;;5019126;28;20053;-62
2023/04/29 07:11:00;;;;;;;11.18;6.45;;;11.10;99.90;;;;;;5018623;28;20167;-62
2023/04/29 07:13:26;;;;;;;11.48;5.63;;;11.20;99.90;;;;;;5003998;28;20045;-62
2023/04/29 07:15:51;;;;;;;12.02;6.38;;;11.30;99.90;;;;;;5016769;28;20037;-62
2023/04/29 07:18:17;;;;;;;13.23;5.88;;;11.30;99.90;;;;;;5016011;28;20041;-62
2023/04/29 07:20:44;;;;;;;16.38;7.07;;;11.40;99.90;;;;;;5003061;28;20591;-62
2023/04/29 07:23:10;;;;;;;13.93;6.75;;;11.50;99.90;;;;;;5020434;28;20069;-62
2023/04/29 07:25:36;;;;;;;14.20;6.35;;;11.50;99.90;;;;;;5021824;28;20548;-62
2023/04/29 07:28:04;;;;;;;12.18;5.55;;;11.60;99.90;;;;;;5006653;28;20076;-62
2023/04/29 07:30:30;;;;;;;11.13;6.22;;;11.70;99.90;;;;;;5005757;28;20050;-62
2023/04/29 07:32:56;;;;;;;16.23;5.63;;;11.70;99.90;;;;;;5022914;28;20122;-62
2023/04/29 07:35:22;;;;;;;11.68;5.05;;;11.70;99.90;;;;;;5009543;28;20135;-62
2023/04/29 07:37:48;;;;;;;12.15;5.80;;;11.60;99.90;;;;;;5018517;28;20038;-62
2023/04/29 07:40:13;;;;;;;12.32;5.30;;;11.70;99.90;;;;;;5021603;28;20042;-62
2023/04/29 07:42:39;;;;;;;13.00;5.53;;;11.80;99.90;;;;;;5020878;28;20091;-62
2023/04/29 07:45:05;;;;;;;12.00;4.82;;;11.80;99.90;;;;;;5002492;28;20042;-61
2023/04/29 07:47:31;;;;;;;8.60;4.57;;;11.80;99.90;;;;;;5019365;28;20042;-61
2023/04/29 07:49:57;;;;;;;12.32;4.32;;;11.80;99.90;;;;;;5004958;28;20060;-62
2023/04/29 07:52:22;;;;;;;8.80;4.50;;;11.90;99.90;;;;;;5020581;28;20045;-62
2023/04/29 07:54:48;;;;;;;14.35;4.38;;;11.90;99.90;;;;;;5021780;28;20045;-61
2023/04/29 07:57:14;;;;;;;12.43;4.78;;;12.10;99.90;;;;;;5004565;28;20112;-62
2023/04/29 07:59:40;;;;;;;11.30;4.88;;;12.10;99.90;;;;;;5015233;28;20404;-61
2023/04/29 08:02:06;;;;;;;11.52;5.18;;;12.30;99.90;;;;;;5017846;28;20037;-62
2023/04/29 08:04:34;;;;;;;8.15;4.32;;;12.40;99.90;;;;;;5004030;28;20061;-62
2023/04/29 08:07:03;;;;;;;11.23;4.90;;;12.40;99.90;;;;;;5024500;28;20082;-62
2023/04/29 08:09:28;;;;;;;10.32;4.45;;;12.60;99.90;;;;;;5018226;28;20041;-62
2023/04/29 08:11:54;;;;;;;12.95;6.35;;;12.70;99.90;;;;;;5008171;28;20063;-61
2023/04/29 08:14:20;;;;;;;10.48;5.35;;;12.70;99.90;;;;;;5023100;28;20041;-62
2023/04/29 08:16:46;;;;;;;8.73;5.10;;;12.80;99.90;;;;;;5020203;28;20072;-62
2023/04/29 08:19:12;;;;;;;11.05;5.93;;;12.90;99.90;;;;;;5008213;28;20042;-62
2023/04/29 08:21:37;;;;;;;8.98;5.53;;;13.00;99.90;;;;;;5027513;28;20037;-62
2023/04/29 08:24:04;;;;;;;11.45;5.72;;;13.10;99.90;;;;;;5046245;28;20519;-62
2023/04/29 08:26:33;;;;;;;12.30;5.53;;;13.20;99.90;;;;;;5026019;28;20045;-62
2023/04/29 08:29:01;;;;;;;13.20;6.03;;;13.30;99.90;;;;;;5022826;28;20049;-62
2023/04/29 08:31:27;;;;;;;11.20;6.15;;;13.30;99.90;;;;;;4996129;28;20037;-61
2023/04/29 08:33:53;;;;;;;13.55;6.00;;;13.40;99.90;;;;;;5004249;28;20508;-61
2023/04/29 08:36:19;;;;;;;9.13;5.32;;;13.50;99.90;;;;;;5007011;28;20052;-61
2023/04/29 08:38:45;;;;;;;12.35;5.22;;;13.50;99.90;;;;;;5022067;28;20041;-62
2023/04/29 08:41:11;;;;;;;19.38;9.60;;;13.50;99.90;;;;;;5004270;28;20124;-62
2023/04/29 08:43:39;;;;;;;13.70;6.38;;;13.60;99.90;;;;;;5011359;28;20125;-62
2023/04/29 08:46:05;;;;;;;12.90;5.50;;;13.50;99.90;;;;;;5004529;28;20040;-62
2023/04/29 08:48:31;;;;;;;12.18;6.03;;;13.40;99.90;;;;;;5008292;28;20060;-62
2023/04/29 08:50:58;;;;;;;12.95;5.80;;;13.30;99.90;;;;;;5008302;28;20103;-62
2023/04/29 08:53:24;;;;;;;12.05;6.05;;;13.30;99.90;;;;;;5017431;28;20045;-62
2023/04/29 08:55:51;;;;;;;14.07;6.40;;;13.40;99.90;;;;;;5021893;28;20057;-62
2023/04/29 08:58:17;;;;;;;10.88;6.00;;;13.40;99.90;;;;;;5042301;28;20048;-62
2023/04/29 09:00:43;;;;;;;10.35;6.00;;;13.40;99.90;;;;;;5022123;28;20045;-62
2023/04/29 09:03:25;;;;;;;8.20;5.72;;;13.30;99.90;;;;;;5004928;28;20092;-62
2023/04/29 09:05:58;;;;;;;10.20;5.93;;;13.40;99.90;;;;;;5019165;28;20042;-62
2023/04/29 09:08:24;;;;;;;12.18;5.97;;;13.50;99.90;;;;;;5018570;28;20424;-61
2023/04/29 09:10:51;;;;;;;10.73;5.85;;;13.70;99.90;;;;;;5018619;28;20449;-61
2023/04/29 09:13:30;;;;;;;15.50;6.18;;;13.90;99.90;;;;;;5027702;28;20595;-62
2023/04/29 09:15:59;;;;;;;9.90;5.43;;;13.90;99.90;;;;;;5018354;28;20053;-62
2023/04/29 09:18:50;;;;;;;11.35;5.80;;;13.90;99.90;;;;;;5037669;28;20026;-61
2023/04/29 09:21:17;;;;;;;12.20;6.13;;;13.90;99.90;;;;;;5013955;28;20045;-61
2023/04/29 09:23:43;;;;;;;11.00;5.70;;;14.00;99.90;;;;;;5037955;28;20480;-61
2023/04/29 09:26:09;;;;;;;15.13;6.15;;;14.00;99.90;;;;;;5025094;28;20051;-62
2023/04/29 09:28:35;;;;;;;9.05;5.00;;;14.20;99.90;;;;;;5038052;28;20037;-61
2023/04/29 09:31:05;;;;;;;16.52;5.65;;;14.30;99.90;;;;;;5013833;28;20096;-61
2023/04/29 09:33:31;;;;;;;13.23;5.63;;;14.30;99.90;;;;;;5009514;28;20230;-62
2023/04/29 09:36:00;;;;;;;11.05;5.75;;;14.50;99.90;;;;;;5010782;28;20140;-61
2023/04/29 09:38:26;;;;;;;10.85;5.68;;;14.50;99.90;;;;;;5014241;28;20043;-63
2023/04/29 09:40:52;;;;;;;11.18;5.78;;;14.50;99.90;;;;;;5011750;28;20049;-62
2023/04/29 09:43:18;;;;;;;9.70;5.65;;;14.40;99.90;;;;;;5002732;28;20095;-62
2023/04/29 09:45:46;;;;;;;8.52;4.80;;;14.40;99.90;;;;;;4988711;28;20045;-63
2023/04/29 09:48:13;;;;;;;8.52;4.20;;;14.20;99.90;;;;;;5024768;28;20045;-62
2023/04/29 09:50:40;;;;;;;9.10;3.75;;;14.30;99.90;;;;;;5011012;28;20072;-62
2023/04/29 09:53:08;;;;;;;10.32;3.92;;;14.30;99.30;;;;;;5023842;28;20052;-62
2023/04/29 09:55:58;;;;;;;7.55;2.90;;;14.40;99.90;;;;;;5023173;28;20510;-62
2023/04/29 09:58:38;;;;;;;7.63;3.20;;;14.70;99.60;;;;;;5027330;28;20049;-63
2023/04/29 10:01:04;;;;;;;7.80;3.15;;;14.90;98.10;;;;;;5026662;28;20128;-63
2023/04/29 10:03:35;;;;;;;6.47;3.53;;;14.90;97.60;;;;;;5025353;28;20046;-62
2023/04/29 10:06:03;;;;;;;5.55;2.55;;;14.90;97.70;;;;;;5017478;28;20520;-62
2023/04/29 10:08:30;;;;;;;7.10;2.97;;;15.00;97.70;;;;;;5021738;28;20041;-63
2023/04/29 10:11:01;;;;;;;7.72;2.83;;;15.10;97.30;;;;;;5005367;28;20073;-62
2023/04/29 10:13:28;;;;;;;5.68;3.10;;;15.20;96.90;;;;;;5028609;28;20044;-63
2023/04/29 10:16:45;;;;;;;7.57;3.17;;;15.10;96.40;;;;;;5011092;28;20478;-62
2023/04/29 10:19:14;;;;;;;8.70;2.60;;;14.90;96.20;;;;;;5038186;28;20052;-62
2023/04/29 10:21:41;;;;;;;8.43;3.55;;;15.00;96.40;;;;;;5007833;28;20053;-63
2023/04/29 10:24:09;;;;;;;8.13;2.83;;;14.90;95.50;;;;;;5007364;28;20120;-62
2023/04/29 10:26:37;;;;;;;4.95;2.70;;;14.90;96.10;;;;;;5007721;28;20045;-62
2023/04/29 10:29:07;;;;;;;5.60;2.45;;;14.90;96.20;;;;;;5021171;28;20044;-62
2023/04/29 10:31:34;;;;;;;6.13;3.75;;;15.00;95.80;;;;;;4996626;28;20968;-62
2023/04/29 10:34:00;;;;;;;9.07;3.28;;;15.10;96.00;;;;;;5015325;28;20123;-62
2023/04/29 10:36:29;;;;;;;5.55;3.08;;;15.20;95.60;;;;;;5021543;28;20124;-65
2023/04/29 10:38:58;;;;;;;7.90;3.40;;;15.30;95.50;;;;;;5019603;28;20404;-62
2023/04/29 10:41:36;;;;;;;4.70;2.50;;;15.40;95.20;;;;;;5001370;28;20510;-60
2023/04/29 10:44:03;;;;;;;4.70;2.30;;;15.50;93.90;;;;;;5013799;28;20048;-62
2023/04/29 10:46:29;;;;;;;5.80;2.75;;;15.40;94.30;;;;;;5022542;28;20050;-61
2023/04/29 10:49:02;;;;;;;6.47;2.78;;;15.50;94.60;;;;;;5021236;28;20049;-62
2023/04/29 10:51:33;;;;;;;6.47;3.10;;;15.30;93.10;;;;;;5016052;28;20493;-62
2023/04/29 10:54:05;;;;;;;5.38;1.90;;;15.30;94.70;;;;;;5018614;28;20051;-62
2023/04/29 10:56:46;;;;;;;5.75;2.05;;;15.40;94.20;;;;;;5018802;28;20048;-62
2023/04/29 10:59:13;;;;;;;4.57;2.55;;;15.50;93.90;;;;;;5015521;28;20079;-61
2023/04/29 11:01:44;;;;;;;5.25;2.20;;;15.70;93.80;;;;;;5013414;28;20068;-62
2023/04/29 11:04:10;;;;;;;5.38;2.50;;;15.80;94.60;;;;;;5024405;28;20092;-62
2023/04/29 11:06:36;;;;;;;4.78;1.88;;;15.80;93.30;;;;;;4986380;28;20424;-62
2023/04/29 11:09:14;;;;;;;8.05;2.60;;;15.50;94.00;;;;;;5019104;28;20100;-62
2023/04/29 11:12:02;;;;;;;4.95;1.95;;;15.70;92.50;;;;;;5021387;28;20037;-62
2023/04/29 11:14:37;;;;;;;5.25;2.80;;;15.80;93.80;;;;;;5025360;28;20060;-62
2023/04/29 11:17:09;;;;;;;3.88;2.28;;;15.70;93.80;;;;;;5016814;28;20052;-62
2023/04/29 11:19:43;;;;;;;6.40;2.55;;;15.70;94.00;;;;;;5018610;28;20048;-62
2023/04/29 11:22:19;;;;;;;7.97;2.97;;;15.40;94.40;;;;;;5015111;28;20803;-62
2023/04/29 11:24:48;;;;;;;7.07;2.72;;;15.20;94.00;;;;;;5016958;28;20700;-62
2023/04/29 11:27:15;;;;;;;4.72;2.10;;;15.00;95.00;;;;;;5007927;28;20045;-62
2023/04/29 11:29:41;;;;;;;8.85;3.55;;;15.00;93.60;;;;;;5024715;28;20262;-62
2023/04/29 11:32:07;;;;;;;7.32;3.08;;;15.20;94.30;;;;;;5003331;28;20481;-62
2023/04/29 11:34:33;;;;;;;4.22;2.40;;;15.40;94.70;;;;;;5019642;28;20037;-62
2023/04/29 11:36:59;;;;;;;2.95;1.88;;;15.40;94.20;;;;;;5023571;28;20065;-62
2023/04/29 11:39:26;;;;;;;4.88;2.83;;;15.50;92.30;;;;;;5024062;28;20037;-62
2023/04/29 11:42:07;;;;;;;5.90;2.65;;;15.60;93.90;;;;;;5023054;28;20041;-62
2023/04/29 11:44:38;;;;;;;3.83;2.05;;;15.10;92.30;;;;;;5003810;28;20041;-62
2023/04/29 11:47:08;;;;;;;6.45;3.08;;;15.20;93.10;;;;;;4989322;28;20048;-62
2023/04/29 11:49:34;;;;;;;7.28;2.80;;;14.80;91.00;;;;;;5023699;28;20257;-62
2023/04/29 11:52:00;;;;;;;4.88;2.33;;;14.80;93.60;;;;;;5005695;28;20037;-61
2023/04/29 11:54:28;;;;;;;4.82;2.35;;;15.20;94.60;;;;;;5007353;28;20033;-63
2023/04/29 11:56:54;;;;;;;6.30;2.10;;;15.60;94.80;;;;;;5019992;28;20055;-62
2023/04/29 11:59:23;;;;;;;5.93;2.15;;;15.90;94.10;;;;;;5029892;28;20447;-62
2023/04/29 12:01:50;;;;;;;5.97;1.80;;;15.20;92.80;;;;;;5034445;28;20034;-62
2023/04/29 12:04:18;;;;;;;4.03;1.50;;;15.40;92.50;;;;;;5011768;28;20053;-62
2023/04/29 12:06:45;;;;;;;4.05;1.88;;;15.70;92.10;;;;;;5020916;28;20485;-62
2023/04/29 12:09:11;;;;;;;4.35;1.98;;;15.40;88.30;;;;;;5024411;28;20045;-62
2023/04/29 12:11:37;;;;;;;4.47;1.92;;;15.30;90.90;;;;;;5030796;28;20393;-62
2023/04/29 12:14:05;;;;;;;2.85;1.83;;;15.60;90.60;;;;;;4999998;28;20063;-62
2023/04/29 12:16:34;;;;;;;5.10;1.67;;;15.70;89.40;;;;;;5026570;28;20095;-62
2023/04/29 12:19:00;;;;;;;4.35;1.73;;;15.50;85.60;;;;;;5021973;28;20180;-62
2023/04/29 12:21:26;;;;;;;3.38;1.40;;;15.70;89.20;;;;;;5028201;28;20045;-62
2023/04/29 12:23:52;;;;;;;5.93;1.35;;;15.90;89.90;;;;;;5020336;28;20098;-62
2023/04/29 12:26:19;;;;;;;4.55;1.60;;;16.30;90.50;;;;;;5027479;28;20518;-62
2023/04/29 12:28:52;;;;;;;7.03;2.10;;;16.20;85.50;;;;;;5021592;28;20069;-62
2023/04/29 12:31:18;;;;;;;5.47;2.15;;;15.80;88.50;;;;;;5024204;28;20523;-62
2023/04/29 12:33:44;;;;;;;7.22;1.98;;;16.10;90.10;;;;;;5026008;28;20073;-62
2023/04/29 12:36:17;;;;;;;4.53;1.60;;;16.50;90.90;;;;;;5024943;28;20496;-62
2023/04/29 12:38:43;;;;;;;3.47;1.60;;;16.60;87.00;;;;;;5027153;28;20111;-62
2023/04/29 12:41:14;;;;;;;2.22;1.30;;;16.70;89.50;;;;;;5023777;28;20404;-62
2023/04/29 12:43:41;;;;;;;4.07;1.52;;;17.00;89.70;;;;;;5016383;28;20046;-63